createdAt,value
2023-03-26T00:01:33.712Z,2.15
2023-03-26T00:04:01.302Z,2.58
2023-03-26T00:06:36.873Z,2.30
2023-03-26T00:09:06.628Z,2.88
2023-03-26T00:11:34.179Z,1.95
2023-03-26T00:14:02.707Z,1.83
2023-03-26T00:16:32.093Z,1.88
2023-03-26T00:19:01.400Z,1.35
2023-03-26T00:21:30.602Z,1.90
2023-03-26T00:24:07.366Z,1.67
2023-03-26T00:26:37.649Z,2.28
2023-03-26T00:29:06.922Z,2.00
2023-03-26T00:31:34.965Z,1.25
2023-03-26T00:34:03.916Z,1.88
2023-03-26T00:36:32.103Z,2.60
2023-03-26T00:38:59.177Z,2.40
2023-03-26T00:41:30.943Z,2.00
2023-03-26T00:43:59.823Z,1.70
2023-03-26T00:46:30.597Z,1.60
2023-03-26T00:48:58.993Z,1.77
2023-03-26T00:51:27.828Z,1.55
2023-03-26T00:53:55.852Z,2.30
2023-03-26T00:56:22.932Z,1.77
2023-03-26T00:58:50.379Z,1.58
2023-03-26T01:01:28.633Z,1.63
2023-03-26T01:04:07.451Z,1.67
2023-03-26T01:06:42.034Z,1.52
2023-03-26T01:09:19.701Z,1.65
2023-03-26T01:11:47.562Z,1.63
2023-03-26T01:14:32.536Z,1.85
2023-03-26T01:17:03.811Z,1.92
2023-03-26T01:20:12.288Z,1.50
2023-03-26T01:22:45.861Z,1.65
2023-03-26T01:25:13.123Z,1.67
2023-03-26T01:27:47.259Z,1.55
2023-03-26T01:30:42.414Z,1.55
2023-03-26T01:33:52.306Z,1.60
2023-03-26T01:36:38.090Z,1.85
2023-03-26T01:39:31.826Z,1.63
2023-03-26T01:42:08.333Z,1.75
2023-03-26T01:44:49.779Z,1.60
2023-03-26T01:47:19.309Z,1.90
2023-03-26T01:49:46.380Z,1.75
2023-03-26T01:52:25.152Z,2.20
2023-03-26T01:54:56.797Z,1.83
2023-03-26T01:57:51.626Z,1.92
2023-03-26T02:00:25.668Z,1.42
2023-03-26T02:03:22.623Z,1.52
2023-03-26T02:06:10.088Z,1.50
2023-03-26T02:08:49.200Z,1.75
2023-03-26T02:11:16.680Z,1.55
2023-03-26T02:13:46.337Z,1.80
2023-03-26T02:16:18.984Z,1.20
2023-03-26T02:18:51.309Z,1.48
2023-03-26T02:21:21.656Z,1.63
2023-03-26T02:24:03.046Z,1.80
2023-03-26T02:26:33.912Z,1.95
2023-03-26T02:29:01.951Z,2.00
2023-03-26T02:31:30.322Z,1.70
2023-03-26T02:33:57.431Z,1.42
2023-03-26T02:36:27.865Z,1.45
2023-03-26T02:38:58.003Z,1.70
2023-03-26T02:41:25.171Z,1.92
2023-03-26T02:43:52.265Z,1.75
2023-03-26T02:46:19.332Z,1.58
2023-03-26T02:48:46.312Z,1.80
2023-03-26T02:51:13.291Z,1.13
2023-03-26T02:53:41.346Z,1.98
2023-03-26T02:56:10.988Z,0.93
2023-03-26T02:58:39.046Z,1.40
2023-03-26T03:01:06.097Z,1.52
2023-03-26T03:03:34.520Z,1.30
2023-03-26T03:06:01.663Z,1.05
2023-03-26T03:08:29.315Z,1.20
2023-03-26T03:11:03.045Z,0.93
2023-03-26T03:13:30.281Z,0.88
2023-03-26T03:15:57.466Z,0.77
2023-03-26T03:18:24.679Z,0.85
2023-03-26T03:20:52.001Z,1.20
2023-03-26T03:23:19.023Z,0.80
2023-03-26T03:25:46.200Z,1.25
2023-03-26T03:28:14.017Z,1.33
2023-03-26T03:30:41.810Z,1.52
2023-03-26T03:33:08.904Z,1.63
2023-03-26T03:35:35.948Z,0.80
2023-03-26T03:38:03.095Z,0.98
2023-03-26T03:40:30.075Z,1.27
2023-03-26T03:42:57.136Z,1.17
2023-03-26T03:45:24.128Z,1.25
2023-03-26T03:47:51.181Z,1.05
2023-03-26T03:50:18.212Z,0.80
2023-03-26T03:52:45.593Z,1.00
2023-03-26T03:58:01.475Z,1.05
2023-03-26T04:00:28.447Z,0.65
2023-03-26T04:02:56.383Z,0.95
2023-03-26T04:05:23.654Z,0.90
2023-03-26T04:07:50.704Z,1.10
2023-03-26T04:10:17.823Z,0.82
2023-03-26T04:12:44.928Z,1.05
2023-03-26T04:15:11.931Z,1.00
2023-03-26T04:17:42.640Z,1.38
2023-03-26T04:20:15.963Z,1.38
2023-03-26T04:22:44.404Z,0.90
2023-03-26T04:25:13.407Z,0.82
2023-03-26T04:27:41.813Z,1.35
2023-03-26T04:30:15.109Z,0.93
2023-03-26T04:32:43.103Z,1.17
2023-03-26T04:35:16.647Z,1.08
2023-03-26T04:37:46.194Z,1.15
2023-03-26T04:40:20.650Z,1.42
2023-03-26T04:42:48.076Z,1.00
2023-03-26T04:45:22.469Z,1.00
2023-03-26T04:47:50.663Z,0.65
2023-03-26T04:50:18.032Z,1.20
2023-03-26T04:52:45.582Z,1.25
2023-03-26T04:55:33.251Z,0.90
2023-03-26T04:58:03.429Z,1.00
2023-03-26T05:00:30.464Z,0.68
2023-03-26T05:03:01.612Z,1.08
2023-03-26T05:05:29.883Z,0.98
2023-03-26T05:07:56.894Z,1.13
2023-03-26T05:10:24.117Z,1.27
2023-03-26T05:12:51.263Z,0.70
2023-03-26T05:15:18.328Z,0.80
2023-03-26T05:17:46.444Z,1.05
2023-03-26T05:20:37.445Z,0.65
2023-03-26T05:23:04.418Z,1.02
2023-03-26T05:25:31.742Z,0.90
2023-03-26T05:27:58.713Z,1.17
2023-03-26T05:30:25.996Z,0.88
2023-03-26T05:32:53.216Z,0.80
2023-03-26T05:35:21.810Z,0.88
2023-03-26T05:37:51.484Z,1.08
2023-03-26T05:40:23.092Z,0.98
2023-03-26T05:42:51.365Z,0.80
2023-03-26T05:45:18.511Z,1.13
2023-03-26T05:47:45.736Z,1.27
2023-03-26T05:50:12.814Z,1.25
2023-03-26T05:52:40.076Z,1.13
2023-03-26T05:55:08.321Z,1.30
2023-03-26T05:57:35.627Z,1.08
2023-03-26T06:00:04.708Z,1.70
2023-03-26T06:02:31.760Z,1.27
2023-03-26T06:04:58.819Z,1.00
2023-03-26T06:07:27.105Z,1.10
2023-03-26T06:09:54.498Z,0.90
2023-03-26T06:12:22.004Z,1.17
2023-03-26T06:14:48.963Z,1.40
2023-03-26T06:17:16.041Z,0.80
2023-03-26T06:19:43.021Z,1.02
2023-03-26T06:22:10.224Z,1.35
2023-03-26T06:24:37.181Z,0.88
2023-03-26T06:27:04.220Z,1.05
2023-03-26T06:29:31.203Z,1.08
2023-03-26T06:32:06.143Z,1.02
2023-03-26T06:34:39.706Z,1.15
2023-03-26T06:37:06.810Z,1.05
2023-03-26T06:39:33.750Z,1.35
2023-03-26T06:42:00.769Z,1.23
2023-03-26T06:44:27.916Z,0.90
2023-03-26T06:46:54.939Z,1.00
2023-03-26T06:49:21.962Z,1.10
2023-03-26T06:51:48.901Z,1.08
2023-03-26T06:54:16.735Z,0.90
2023-03-26T06:56:44.848Z,1.02
2023-03-26T06:59:11.814Z,0.80
2023-03-26T07:01:38.932Z,0.90
2023-03-26T07:04:06.081Z,1.10
2023-03-26T07:06:33.290Z,1.17
2023-03-26T07:09:00.316Z,1.00
2023-03-26T07:11:27.458Z,1.05
2023-03-26T07:13:56.361Z,1.30
2023-03-26T07:16:23.702Z,1.48
2023-03-26T07:18:51.345Z,1.33
2023-03-26T07:21:19.902Z,1.05
2023-03-26T07:23:47.979Z,1.40
2023-03-26T07:26:48.266Z,1.40
2023-03-26T07:29:27.974Z,1.25
2023-03-26T07:32:21.217Z,1.20
2023-03-26T07:35:16.540Z,1.17
2023-03-26T07:38:21.302Z,1.58
2023-03-26T07:41:10.546Z,1.08
2023-03-26T07:44:25.343Z,1.40
2023-03-26T07:46:53.389Z,1.33
2023-03-26T07:49:21.570Z,1.15
2023-03-26T07:51:49.725Z,1.38
2023-03-26T07:54:17.072Z,1.13
2023-03-26T07:57:08.984Z,1.50
2023-03-26T07:59:59.552Z,0.95
2023-03-26T08:03:10.133Z,1.05
2023-03-26T08:05:50.444Z,0.50
2023-03-26T08:08:46.505Z,0.88
2023-03-26T08:11:34.458Z,1.10
2023-03-26T08:14:25.758Z,1.10
2023-03-26T08:17:17.395Z,1.15
2023-03-26T08:20:07.769Z,0.98
2023-03-26T08:22:41.194Z,1.15
2023-03-26T08:25:34.829Z,1.23
2023-03-26T08:28:35.453Z,1.42
2023-03-26T08:31:03.061Z,1.23
2023-03-26T08:33:31.110Z,1.05
2023-03-26T08:35:58.244Z,1.25
2023-03-26T08:38:25.252Z,1.23
2023-03-26T08:41:40.374Z,0.95
2023-03-26T08:44:27.593Z,1.05
2023-03-26T08:47:34.294Z,0.95
2023-03-26T08:50:26.180Z,0.90
2023-03-26T08:53:20.507Z,1.55
2023-03-26T08:56:41.288Z,1.00
2023-03-26T08:59:44.868Z,1.10
2023-03-26T09:02:51.746Z,0.80
2023-03-26T09:06:16.971Z,0.90
2023-03-26T09:08:59.225Z,1.10
2023-03-26T09:11:35.949Z,0.70
2023-03-26T09:14:36.487Z,0.95
2023-03-26T09:17:39.738Z,0.70
2023-03-26T09:20:48.317Z,1.08
2023-03-26T09:23:29.058Z,0.85
2023-03-26T09:26:15.037Z,0.70
2023-03-26T09:28:44.989Z,0.80
2023-03-26T09:31:48.545Z,0.82
2023-03-26T09:37:56.140Z,0.63
2023-03-26T09:41:13.603Z,0.52
2023-03-26T09:44:38.650Z,1.17
2023-03-26T09:47:57.694Z,1.00
2023-03-26T09:50:52.600Z,0.85
2023-03-26T09:53:19.686Z,0.98
2023-03-26T09:56:23.543Z,0.63
2023-03-26T09:59:16.883Z,1.25
2023-03-26T10:02:46.264Z,0.50
2023-03-26T10:05:45.130Z,1.20
2023-03-26T10:08:35.418Z,0.75
2023-03-26T10:11:26.973Z,0.90
2023-03-26T10:14:21.471Z,0.60
2023-03-26T10:17:28.461Z,0.68
2023-03-26T10:20:33.589Z,0.60
2023-03-26T10:23:06.616Z,0.60
2023-03-26T10:26:06.006Z,0.95
2023-03-26T10:28:52.205Z,0.82
2023-03-26T10:31:43.080Z,0.25
2023-03-26T10:35:15.705Z,0.45
2023-03-26T10:38:32.838Z,0.50
2023-03-26T10:41:24.296Z,0.55
2023-03-26T10:44:37.576Z,0.95
2023-03-26T10:47:48.444Z,0.80
2023-03-26T10:50:49.578Z,0.45
2023-03-26T10:53:33.838Z,0.98
2023-03-26T10:56:40.874Z,0.80
2023-03-26T10:59:13.013Z,0.90
2023-03-26T11:01:57.954Z,0.77
2023-03-26T11:04:30.672Z,0.88
2023-03-26T11:07:29.283Z,1.10
2023-03-26T11:10:42.058Z,0.80
2023-03-26T11:13:58.487Z,0.75
2023-03-26T11:16:47.173Z,1.05
2023-03-26T11:19:31.170Z,1.08
2023-03-26T11:22:33.828Z,0.90
2023-03-26T11:25:36.083Z,0.47
2023-03-26T11:28:27.381Z,1.35
2023-03-26T11:31:07.435Z,0.32
2023-03-26T11:34:37.043Z,0.80
2023-03-26T11:36:39.532Z,0.90
2023-03-26T11:39:19.282Z,0.80
2023-03-26T11:41:47.699Z,0.73
2023-03-26T11:44:24.530Z,0.80
2023-03-26T11:47:04.072Z,0.90
2023-03-26T11:49:31.904Z,0.77
2023-03-26T11:51:59.278Z,0.95
2023-03-26T11:54:26.380Z,0.60
2023-03-26T11:57:14.147Z,0.70
2023-03-26T12:00:17.430Z,0.50
2023-03-26T12:02:47.088Z,0.50
2023-03-26T12:05:26.673Z,0.40
2023-03-26T12:08:03.215Z,0.57
2023-03-26T12:10:39.308Z,0.35
2023-03-26T12:13:21.272Z,0.15
2023-03-26T12:15:50.026Z,0.50
2023-03-26T12:18:28.320Z,0.30
2023-03-26T12:21:08.722Z,0.70
2023-03-26T12:24:03.675Z,0.40
2023-03-26T12:26:45.016Z,0.47
2023-03-26T12:29:19.200Z,0.55
2023-03-26T12:32:14.234Z,0.60
2023-03-26T12:34:41.783Z,0.38
2023-03-26T12:37:37.589Z,0.68
2023-03-26T12:40:25.695Z,0.75
2023-03-26T12:44:48.637Z,0.60
2023-03-26T12:47:54.190Z,0.25
2023-03-26T12:48:42.890Z,0.73
2023-03-26T12:51:31.644Z,0.30
2023-03-26T12:54:27.116Z,0.20
2023-03-26T12:57:20.717Z,0.60
2023-03-26T13:00:11.993Z,0.40
2023-03-26T13:02:59.113Z,0.20
2023-03-26T13:05:34.321Z,0.30
2023-03-26T13:08:47.266Z,0.50
2023-03-26T13:11:56.044Z,0.22
2023-03-26T13:15:13.133Z,0.10
2023-03-26T13:18:12.209Z,0.40
2023-03-26T13:21:18.515Z,0.25
2023-03-26T13:24:21.484Z,0.03
2023-03-26T13:27:32.516Z,0.63
2023-03-26T13:30:39.631Z,0.20
2023-03-26T13:33:37.274Z,0.10
2023-03-26T13:36:26.722Z,0.30
2023-03-26T13:39:21.302Z,0.15
2023-03-26T13:42:03.541Z,0.77
2023-03-26T13:44:30.399Z,0.17
2023-03-26T13:47:11.752Z,0.40
2023-03-26T13:49:46.773Z,0.00
2023-03-26T13:53:09.863Z,0.25
2023-03-26T13:56:00.759Z,0.60
2023-03-26T13:59:01.684Z,0.30
2023-03-26T14:01:41.172Z,0.30
2023-03-26T14:04:26.013Z,0.10
2023-03-26T14:07:11.202Z,0.40
2023-03-26T14:09:58.811Z,0.30
2023-03-26T14:13:04.270Z,0.32
2023-03-26T14:15:46.734Z,0.20
2023-03-26T14:18:40.271Z,0.40
2023-03-26T14:21:36.638Z,0.30
2023-03-26T14:24:25.453Z,0.63
2023-03-26T14:27:13.325Z,0.70
2023-03-26T14:30:07.956Z,0.55
2023-03-26T14:32:58.600Z,0.40
2023-03-26T14:35:57.565Z,0.52
2023-03-26T14:38:44.053Z,0.75
2023-03-26T14:41:38.490Z,0.77
2023-03-26T14:44:47.777Z,0.22
2023-03-26T14:47:19.279Z,0.85
2023-03-26T14:50:15.468Z,1.10
2023-03-26T14:53:01.218Z,0.50
2023-03-26T14:55:48.713Z,0.20
2023-03-26T14:58:37.076Z,0.00
2023-03-26T15:01:26.723Z,0.65
2023-03-26T15:04:12.016Z,0.50
2023-03-26T15:07:19.751Z,0.47
2023-03-26T15:09:52.215Z,0.20
2023-03-26T15:13:01.062Z,0.22
2023-03-26T15:16:00.619Z,0.55
2023-03-26T15:18:51.037Z,0.35
2023-03-26T15:21:21.015Z,0.52
2023-03-26T15:24:22.222Z,0.43
2023-03-26T15:27:32.555Z,0.82
2023-03-26T15:30:11.744Z,0.20
2023-03-26T15:33:12.841Z,0.20
2023-03-26T15:36:09.292Z,0.45
2023-03-26T15:39:21.359Z,0.55
2023-03-26T15:42:18.854Z,0.80
2023-03-26T15:44:54.529Z,1.92
2023-03-26T15:47:34.299Z,0.30
2023-03-26T15:50:56.189Z,0.47
2023-03-26T15:53:44.913Z,0.40
2023-03-26T15:56:53.170Z,0.35
2023-03-26T15:59:57.618Z,0.82
2023-03-26T16:02:53.725Z,0.25
2023-03-26T16:05:33.177Z,0.40
2023-03-26T16:08:30.742Z,0.50
2023-03-26T16:11:00.022Z,0.93
2023-03-26T16:13:32.895Z,0.65
2023-03-26T16:18:46.596Z,0.52
2023-03-26T16:21:32.853Z,1.13
2023-03-26T16:24:02.781Z,0.70
2023-03-26T16:27:09.010Z,0.30
2023-03-26T16:30:00.457Z,0.47
2023-03-26T16:32:35.491Z,0.65
2023-03-26T16:35:14.570Z,0.60
2023-03-26T16:37:52.697Z,0.32
2023-03-26T16:40:20.842Z,0.95
2023-03-26T16:43:15.514Z,0.43
2023-03-26T16:46:26.401Z,0.52
2023-03-26T16:49:17.047Z,0.17
2023-03-26T16:52:08.039Z,0.52
2023-03-26T16:54:48.946Z,0.40
2023-03-26T16:57:47.847Z,0.15
2023-03-26T17:01:08.947Z,0.68
2023-03-26T17:04:01.658Z,0.38
2023-03-26T17:06:53.780Z,0.60
2023-03-26T17:09:46.650Z,0.80
2023-03-26T17:12:37.008Z,0.22
2023-03-26T17:15:28.124Z,0.13
2023-03-26T17:18:29.068Z,0.28
2023-03-26T17:21:19.602Z,0.00
2023-03-26T17:24:29.451Z,0.20
2023-03-26T17:27:21.023Z,0.30
2023-03-26T17:30:22.180Z,0.47
2023-03-26T17:33:39.005Z,0.55
2023-03-26T17:36:12.488Z,0.10
2023-03-26T17:38:39.541Z,0.65
2023-03-26T17:41:11.670Z,0.65
2023-03-26T17:43:50.079Z,0.15
2023-03-26T17:46:42.258Z,0.60
2023-03-26T17:49:12.487Z,1.40
2023-03-26T17:51:50.415Z,0.20
2023-03-26T17:55:00.751Z,0.40
2023-03-26T17:58:05.221Z,0.15
2023-03-26T18:00:45.690Z,0.60
2023-03-26T18:03:29.556Z,0.73
2023-03-26T18:06:09.826Z,0.55
2023-03-26T18:09:05.993Z,0.60
2023-03-26T18:12:06.877Z,0.68
2023-03-26T18:14:55.772Z,0.60
2023-03-26T18:17:25.468Z,0.47
2023-03-26T18:20:02.262Z,0.60
2023-03-26T18:22:30.855Z,0.40
2023-03-26T18:25:03.808Z,0.43
2023-03-26T18:27:39.256Z,0.70
2023-03-26T18:30:23.544Z,0.93
2023-03-26T18:33:15.873Z,0.13
2023-03-26T18:35:54.387Z,0.25
2023-03-26T18:38:35.414Z,0.43
2023-03-26T18:41:08.104Z,0.73
2023-03-26T18:43:44.574Z,0.75
2023-03-26T18:46:14.525Z,0.50
2023-03-26T18:48:42.372Z,0.28
2023-03-26T18:51:09.935Z,1.10
2023-03-26T18:53:49.168Z,0.30
2023-03-26T18:56:35.617Z,0.50
2023-03-26T18:59:06.990Z,0.70
2023-03-26T19:01:37.422Z,0.73
2023-03-26T19:04:07.992Z,0.52
2023-03-26T19:06:40.001Z,0.40
2023-03-26T19:09:24.214Z,0.83
2023-03-26T19:12:14.456Z,0.15
2023-03-26T19:15:02.102Z,0.88
2023-03-26T19:17:38.458Z,0.20
2023-03-26T19:20:12.621Z,0.73
2023-03-26T19:22:42.333Z,0.20
2023-03-26T19:25:36.812Z,0.13
2023-03-26T19:28:05.334Z,0.50
2023-03-26T19:30:39.238Z,0.40
2023-03-26T19:33:20.697Z,0.32
2023-03-26T19:36:15.070Z,0.50
2023-03-26T19:38:54.999Z,0.57
2023-03-26T19:41:37.654Z,0.55
2023-03-26T19:44:30.593Z,0.68
2023-03-26T19:47:17.737Z,0.57
2023-03-26T19:49:51.146Z,0.20
2023-03-26T19:52:47.413Z,0.10
2023-03-26T19:55:27.116Z,0.20
2023-03-26T19:57:54.128Z,0.20
2023-03-26T20:00:21.971Z,0.88
2023-03-26T20:02:49.645Z,0.30
2023-03-26T20:05:23.106Z,0.20
2023-03-26T20:07:50.830Z,0.40
2023-03-26T20:10:18.343Z,0.25
2023-03-26T20:12:45.584Z,0.30
2023-03-26T20:15:22.321Z,0.38
2023-03-26T20:17:52.408Z,0.52
2023-03-26T20:20:19.795Z,0.30
2023-03-26T20:22:47.506Z,0.32
2023-03-26T20:25:21.691Z,1.27
2023-03-26T20:27:48.959Z,0.20
2023-03-26T20:30:22.273Z,0.38
2023-03-26T20:33:12.772Z,0.40
2023-03-26T20:35:41.555Z,0.55
2023-03-26T20:38:12.028Z,0.20
2023-03-26T20:40:40.209Z,0.30
2023-03-26T20:43:13.438Z,0.75
2023-03-26T20:45:41.106Z,1.33
2023-03-26T20:48:10.406Z,0.50
2023-03-26T20:50:50.393Z,0.20
2023-03-26T20:53:19.056Z,0.50
2023-03-26T20:55:47.665Z,0.28
2023-03-26T20:58:31.042Z,0.35
2023-03-26T21:01:01.924Z,0.32
2023-03-26T21:03:29.465Z,0.60
2023-03-26T21:06:01.693Z,0.68
2023-03-26T21:08:35.565Z,0.30
2023-03-26T21:11:05.892Z,0.70
2023-03-26T21:13:58.098Z,0.55
2023-03-26T21:16:25.716Z,0.75
2023-03-26T21:18:53.434Z,0.40
2023-03-26T21:21:41.884Z,0.63
2023-03-26T21:24:33.265Z,0.10
2023-03-26T21:27:09.703Z,0.03
2023-03-26T21:29:37.582Z,0.57
2023-03-26T21:32:05.808Z,0.55
2023-03-26T21:34:33.595Z,0.28
2023-03-26T21:37:02.032Z,0.40
2023-03-26T21:39:29.956Z,0.95
2023-03-26T21:42:04.909Z,0.15
2023-03-26T21:44:34.294Z,0.60
2023-03-26T21:47:01.786Z,0.55
2023-03-26T21:49:29.365Z,0.20
2023-03-26T21:51:56.844Z,0.00
2023-03-26T21:54:30.856Z,0.30
2023-03-26T21:57:19.894Z,0.63
2023-03-26T22:00:16.361Z,0.43
2023-03-26T22:06:10.576Z,0.43
2023-03-26T22:08:41.454Z,0.45
2023-03-26T22:11:11.258Z,0.40
2023-03-26T22:13:38.983Z,0.43
2023-03-26T22:16:08.571Z,0.30
2023-03-26T22:18:35.574Z,0.40
2023-03-26T22:21:03.043Z,0.82
2023-03-26T22:23:36.338Z,0.80
2023-03-26T22:26:05.906Z,0.73
2023-03-26T22:28:33.187Z,0.63
2023-03-26T22:31:07.238Z,0.95
2023-03-26T22:33:36.064Z,0.95
2023-03-26T22:36:03.217Z,0.98
2023-03-26T22:38:30.727Z,0.80
2023-03-26T22:40:58.443Z,0.60
2023-03-26T22:43:26.164Z,0.45
2023-03-26T22:45:54.739Z,0.50
2023-03-26T22:48:24.079Z,0.90
2023-03-26T22:51:03.264Z,0.77
2023-03-26T22:53:31.706Z,0.55
2023-03-26T22:56:00.034Z,0.85
2023-03-26T22:58:28.205Z,0.40
2023-03-26T23:01:10.617Z,0.70
2023-03-26T23:03:39.331Z,0.55
2023-03-26T23:06:10.669Z,0.90
2023-03-26T23:08:38.568Z,0.80
2023-03-26T23:11:14.185Z,0.95
2023-03-26T23:13:42.643Z,0.65
2023-03-26T23:16:11.359Z,0.75
2023-03-26T23:18:39.447Z,0.55
2023-03-26T23:21:12.717Z,0.57
2023-03-26T23:23:39.953Z,0.50
2023-03-26T23:26:07.317Z,0.40
2023-03-26T23:28:35.438Z,0.60
2023-03-26T23:31:06.284Z,0.80
2023-03-26T23:33:36.396Z,0.50
2023-03-26T23:36:08.790Z,0.70
2023-03-26T23:38:43.688Z,0.47
2023-03-26T23:41:15.116Z,0.43
2023-03-26T23:43:53.811Z,0.55
2023-03-26T23:46:33.170Z,0.22
2023-03-26T23:49:03.398Z,0.52
2023-03-26T23:51:31.450Z,0.73
2023-03-26T23:53:59.727Z,0.82
2023-03-26T23:56:32.699Z,0.80
